createdAt,value
2022-12-29T00:01:23.876Z,0.80
2022-12-29T00:03:52.401Z,1.00
2022-12-29T00:06:21.089Z,1.00
2022-12-29T00:08:49.561Z,1.07
2022-12-29T00:11:18.661Z,0.90
2022-12-29T00:14:06.275Z,0.97
2022-12-29T00:16:35.189Z,0.83
2022-12-29T00:19:03.909Z,0.90
2022-12-29T00:21:49.999Z,0.93
2022-12-29T00:24:37.511Z,0.90
2022-12-29T00:27:31.039Z,0.83
2022-12-29T00:30:19.041Z,0.93
2022-12-29T00:33:05.077Z,0.93
2022-12-29T00:35:36.231Z,1.00
2022-12-29T00:38:28.663Z,1.00
2022-12-29T00:41:14.906Z,0.90
2022-12-29T00:44:01.201Z,0.90
2022-12-29T00:46:31.284Z,0.90
2022-12-29T00:49:18.090Z,1.00
2022-12-29T00:51:46.709Z,1.00
2022-12-29T00:54:15.391Z,0.80
2022-12-29T00:56:43.947Z,0.90
2022-12-29T00:59:13.461Z,1.00
2022-12-29T01:01:43.759Z,0.80
2022-12-29T01:04:12.378Z,0.90
2022-12-29T01:06:41.591Z,0.87
2022-12-29T01:09:27.791Z,0.90
2022-12-29T01:11:56.761Z,0.70
2022-12-29T01:14:25.624Z,0.80
2022-12-29T01:16:55.605Z,0.77
2022-12-29T01:19:24.407Z,0.73
2022-12-29T01:21:53.043Z,0.70
2022-12-29T01:24:22.008Z,0.80
2022-12-29T01:26:50.981Z,1.03
2022-12-29T01:29:19.685Z,0.93
2022-12-29T01:31:48.441Z,0.80
2022-12-29T01:34:18.386Z,0.80
2022-12-29T01:36:49.458Z,0.80
2022-12-29T01:39:17.936Z,0.70
2022-12-29T01:41:46.544Z,0.70
2022-12-29T01:44:38.724Z,0.70
2022-12-29T01:47:07.227Z,0.73
2022-12-29T01:49:37.510Z,0.80
2022-12-29T01:52:08.225Z,0.70
2022-12-29T01:54:38.935Z,0.90
2022-12-29T01:57:10.207Z,0.90
2022-12-29T01:59:40.070Z,0.80
2022-12-29T02:02:09.082Z,0.63
2022-12-29T02:04:45.220Z,0.80
2022-12-29T02:07:17.375Z,0.60
2022-12-29T02:09:46.447Z,1.00
2022-12-29T02:12:15.280Z,0.80
2022-12-29T02:14:44.095Z,0.80
2022-12-29T02:17:16.578Z,0.90
2022-12-29T02:20:10.506Z,0.70
2022-12-29T02:22:47.376Z,0.80
2022-12-29T02:25:23.302Z,0.70
2022-12-29T02:27:54.359Z,0.57
2022-12-29T02:30:41.251Z,0.80
2022-12-29T02:33:16.324Z,0.70
2022-12-29T02:35:52.057Z,0.80
2022-12-29T02:38:23.628Z,0.70
2022-12-29T02:40:56.187Z,0.70
2022-12-29T02:43:27.671Z,0.70
2022-12-29T02:46:00.697Z,0.57
2022-12-29T02:48:32.342Z,0.70
2022-12-29T02:51:03.815Z,0.63
2022-12-29T02:53:51.463Z,0.80
2022-12-29T02:56:20.361Z,0.80
2022-12-29T02:58:48.834Z,0.90
2022-12-29T03:01:25.135Z,0.90
2022-12-29T03:04:02.916Z,0.90
2022-12-29T03:06:34.953Z,0.83
2022-12-29T03:09:06.972Z,0.87
2022-12-29T03:12:08.284Z,0.90
2022-12-29T03:14:58.369Z,0.90
2022-12-29T03:17:30.827Z,1.00
2022-12-29T03:20:03.333Z,0.83
2022-12-29T03:22:35.016Z,0.80
2022-12-29T03:25:05.680Z,1.20
2022-12-29T03:27:36.667Z,0.90
2022-12-29T03:30:06.534Z,1.10
2022-12-29T03:32:38.986Z,0.97
2022-12-29T03:35:08.612Z,0.90
2022-12-29T03:37:39.020Z,0.90
2022-12-29T03:40:08.359Z,0.80
2022-12-29T03:42:38.039Z,0.90
2022-12-29T03:45:07.548Z,0.90
2022-12-29T03:47:37.522Z,0.67
2022-12-29T03:50:06.279Z,0.70
2022-12-29T03:52:34.746Z,0.67
2022-12-29T03:55:03.408Z,1.00
2022-12-29T03:57:31.980Z,0.77
2022-12-29T04:00:00.505Z,1.10
2022-12-29T04:02:29.316Z,0.60
2022-12-29T04:04:59.356Z,0.60
2022-12-29T04:07:27.826Z,0.80
2022-12-29T04:09:56.476Z,0.70
2022-12-29T04:12:25.029Z,0.70
2022-12-29T04:14:53.492Z,0.60
2022-12-29T04:17:22.149Z,0.60
2022-12-29T04:19:50.640Z,0.50
2022-12-29T04:22:20.850Z,0.40
2022-12-29T04:24:49.443Z,0.60
2022-12-29T04:27:17.915Z,0.40
2022-12-29T04:29:47.293Z,0.43
2022-12-29T04:32:15.877Z,0.57
2022-12-29T04:34:44.464Z,0.50
2022-12-29T04:37:12.942Z,0.40
2022-12-29T04:39:42.816Z,0.33
2022-12-29T04:42:11.625Z,0.30
2022-12-29T04:44:45.059Z,0.20
2022-12-29T04:47:14.055Z,0.20
2022-12-29T04:49:42.718Z,0.23
2022-12-29T04:52:11.521Z,0.10
2022-12-29T04:54:40.760Z,0.23
2022-12-29T04:57:10.614Z,0.20
2022-12-29T04:59:39.095Z,0.20
2022-12-29T05:02:07.885Z,0.13
2022-12-29T05:04:36.436Z,0.20
2022-12-29T05:07:04.931Z,0.20
2022-12-29T05:09:33.574Z,0.10
2022-12-29T05:12:02.180Z,0.10
2022-12-29T05:14:32.043Z,0.20
2022-12-29T05:17:01.816Z,0.20
2022-12-29T05:19:30.291Z,0.10
2022-12-29T05:21:58.836Z,0.30
2022-12-29T05:24:27.424Z,0.20
2022-12-29T05:26:55.900Z,0.10
2022-12-29T05:29:24.385Z,0.10
2022-12-29T05:31:54.457Z,0.20
2022-12-29T05:34:22.997Z,0.13
2022-12-29T05:36:51.502Z,0.20
2022-12-29T05:39:20.091Z,0.10
2022-12-29T05:41:48.936Z,0.10
2022-12-29T05:44:17.752Z,0.10
2022-12-29T05:46:48.079Z,0.10
2022-12-29T05:49:18.441Z,0.10
2022-12-29T05:51:48.265Z,0.00
2022-12-29T05:54:16.895Z,0.10
2022-12-29T05:56:45.359Z,0.00
2022-12-29T05:59:13.830Z,0.00
2022-12-29T06:01:42.494Z,0.10
2022-12-29T06:04:11.030Z,0.00
2022-12-29T06:06:41.531Z,0.00
2022-12-29T06:09:12.288Z,0.00
2022-12-29T06:11:40.774Z,0.00
2022-12-29T06:14:09.254Z,0.00
2022-12-29T06:16:38.257Z,0.00
2022-12-29T06:19:06.770Z,0.00
2022-12-29T06:21:35.652Z,0.00
2022-12-29T06:24:05.760Z,0.10
2022-12-29T06:26:34.263Z,0.00
2022-12-29T06:29:03.877Z,0.10
2022-12-29T06:31:32.417Z,0.10
2022-12-29T06:34:06.441Z,0.10
2022-12-29T06:36:36.853Z,0.00
2022-12-29T06:39:06.844Z,0.00
2022-12-29T06:41:35.319Z,0.10
2022-12-29T06:44:03.877Z,0.10
2022-12-29T06:46:32.625Z,0.07
2022-12-29T06:49:01.211Z,0.13
2022-12-29T06:51:29.805Z,0.20
2022-12-29T06:53:58.623Z,0.10
2022-12-29T06:56:28.527Z,0.10
2022-12-29T06:58:57.003Z,0.00
2022-12-29T07:01:25.767Z,0.10
2022-12-29T07:03:54.360Z,0.10
2022-12-29T07:06:23.137Z,0.00
2022-12-29T07:08:51.898Z,0.20
2022-12-29T07:11:20.558Z,0.13
2022-12-29T07:13:52.712Z,0.10
2022-12-29T07:16:21.413Z,0.10
2022-12-29T07:18:49.911Z,0.10
2022-12-29T07:21:18.395Z,0.13
2022-12-29T07:23:47.043Z,0.13
2022-12-29T07:26:16.351Z,0.13
2022-12-29T07:28:45.120Z,0.03
2022-12-29T07:31:18.152Z,0.10
2022-12-29T07:33:46.967Z,0.20
2022-12-29T07:36:16.022Z,0.87
2022-12-29T07:38:44.513Z,0.83
2022-12-29T07:41:13.006Z,0.00
2022-12-29T07:43:41.649Z,0.10
2022-12-29T07:46:18.940Z,0.10
2022-12-29T07:49:01.292Z,0.77
2022-12-29T07:51:29.761Z,0.30
2022-12-29T07:54:00.435Z,0.20
2022-12-29T07:56:29.282Z,0.10
2022-12-29T07:58:57.787Z,0.13
2022-12-29T08:01:26.334Z,0.03
2022-12-29T08:03:57.494Z,0.10
2022-12-29T08:06:27.714Z,0.07
2022-12-29T08:08:57.287Z,0.10
2022-12-29T08:11:26.106Z,0.80
2022-12-29T08:13:54.655Z,0.23
2022-12-29T08:16:23.396Z,0.60
2022-12-29T08:18:51.897Z,0.00
2022-12-29T08:21:20.396Z,0.00
2022-12-29T08:23:50.784Z,0.00
2022-12-29T08:26:19.249Z,0.20
2022-12-29T08:28:47.907Z,0.10
2022-12-29T08:31:16.576Z,0.10
2022-12-29T08:33:45.091Z,0.07
2022-12-29T08:36:13.584Z,0.07
2022-12-29T08:38:42.367Z,0.10
2022-12-29T08:41:12.440Z,0.00
2022-12-29T08:43:41.230Z,0.10
2022-12-29T08:46:09.879Z,0.30
2022-12-29T08:48:38.358Z,0.20
2022-12-29T08:51:07.024Z,0.63
2022-12-29T08:53:35.572Z,0.30
2022-12-29T08:56:05.752Z,0.20
2022-12-29T08:58:35.946Z,0.20
2022-12-29T09:01:04.600Z,0.00
2022-12-29T09:06:21.606Z,0.30
2022-12-29T09:08:50.094Z,0.30
2022-12-29T09:11:20.084Z,0.20
2022-12-29T09:13:50.111Z,0.17
2022-12-29T09:16:19.320Z,0.10
2022-12-29T09:18:48.066Z,0.10
2022-12-29T09:21:16.654Z,0.00
2022-12-29T09:23:45.124Z,0.30
2022-12-29T09:26:13.991Z,0.00
2022-12-29T09:28:42.696Z,0.10
2022-12-29T09:31:12.702Z,0.00
2022-12-29T09:33:41.386Z,0.10
2022-12-29T09:36:11.442Z,0.07
2022-12-29T09:38:39.907Z,0.13
2022-12-29T09:41:14.045Z,0.70
2022-12-29T09:43:52.182Z,0.07
2022-12-29T09:46:26.800Z,0.00
2022-12-29T09:48:58.292Z,0.10
2022-12-29T09:51:27.032Z,0.00
2022-12-29T09:53:58.741Z,0.10
2022-12-29T09:56:29.425Z,0.00
2022-12-29T09:59:01.089Z,0.10
2022-12-29T10:01:33.992Z,0.10
2022-12-29T10:04:06.130Z,0.10
2022-12-29T10:06:45.496Z,0.10
2022-12-29T10:09:29.235Z,0.10
2022-12-29T10:12:03.804Z,0.20
2022-12-29T10:14:39.950Z,0.20
2022-12-29T10:17:17.602Z,0.10
2022-12-29T10:19:58.907Z,0.00
2022-12-29T10:22:35.372Z,0.00
2022-12-29T10:25:06.124Z,0.10
2022-12-29T10:27:35.619Z,0.10
2022-12-29T10:30:05.018Z,0.00
2022-12-29T10:32:37.484Z,0.20
2022-12-29T10:35:09.212Z,0.50
2022-12-29T10:37:40.388Z,0.23
2022-12-29T10:40:17.164Z,0.70
2022-12-29T10:42:47.964Z,0.40
2022-12-29T10:45:17.514Z,0.30
2022-12-29T10:47:55.195Z,0.50
2022-12-29T10:50:24.214Z,0.40
2022-12-29T10:52:52.952Z,0.57
2022-12-29T10:55:23.984Z,0.40
2022-12-29T10:57:52.719Z,0.40
2022-12-29T11:00:22.517Z,0.40
2022-12-29T11:03:08.558Z,0.60
2022-12-29T11:05:38.956Z,0.40
2022-12-29T11:08:11.546Z,2.40
2022-12-29T11:10:42.127Z,0.60
2022-12-29T11:13:15.163Z,0.60
2022-12-29T11:15:44.414Z,0.80
2022-12-29T11:18:30.447Z,1.03
2022-12-29T11:21:01.520Z,0.70
2022-12-29T11:23:32.995Z,0.80
2022-12-29T11:26:28.930Z,0.60
2022-12-29T11:29:23.453Z,0.73
2022-12-29T11:31:52.713Z,0.80
2022-12-29T11:34:22.573Z,0.80
2022-12-29T11:36:53.667Z,2.60
2022-12-29T11:39:28.783Z,0.80
2022-12-29T11:41:57.405Z,0.90
2022-12-29T11:44:26.329Z,0.80
2022-12-29T11:46:55.517Z,0.90
2022-12-29T11:49:25.706Z,1.27
2022-12-29T11:51:57.852Z,0.90
2022-12-29T11:54:27.854Z,0.80
2022-12-29T11:56:57.091Z,0.83
2022-12-29T11:59:39.585Z,0.87
2022-12-29T12:02:23.789Z,0.70
2022-12-29T12:04:54.012Z,2.57
2022-12-29T12:07:27.219Z,0.70
2022-12-29T12:10:03.158Z,0.50
2022-12-29T12:12:37.529Z,0.53
2022-12-29T12:15:06.517Z,0.60
2022-12-29T12:17:40.224Z,0.60
2022-12-29T12:20:18.709Z,0.70
2022-12-29T12:22:53.506Z,0.60
2022-12-29T12:25:23.136Z,0.50
2022-12-29T12:27:54.323Z,0.50
2022-12-29T12:30:24.151Z,0.37
2022-12-29T12:32:56.069Z,0.50
2022-12-29T12:35:29.459Z,0.60
2022-12-29T12:38:10.157Z,0.50
2022-12-29T12:40:55.956Z,0.80
2022-12-29T12:43:33.822Z,0.80
2022-12-29T12:46:07.957Z,1.00
2022-12-29T12:48:45.587Z,0.70
2022-12-29T12:51:18.061Z,0.87
2022-12-29T12:53:56.010Z,1.53
2022-12-29T12:56:42.782Z,1.00
2022-12-29T12:59:16.797Z,1.10
2022-12-29T13:01:50.752Z,1.00
2022-12-29T13:04:37.830Z,1.13
2022-12-29T13:07:10.680Z,1.03
2022-12-29T13:10:03.105Z,1.37
2022-12-29T13:12:39.531Z,1.10
2022-12-29T13:15:14.870Z,1.30
2022-12-29T13:17:47.127Z,1.20
2022-12-29T13:20:23.210Z,1.70
2022-12-29T13:22:56.335Z,1.37
2022-12-29T13:25:29.121Z,1.30
2022-12-29T13:28:03.012Z,1.33
2022-12-29T13:30:33.959Z,1.20
2022-12-29T13:33:04.566Z,1.30
2022-12-29T13:35:40.764Z,1.30
2022-12-29T13:38:13.715Z,1.20
2022-12-29T13:40:44.474Z,1.27
2022-12-29T13:43:15.255Z,1.40
2022-12-29T13:45:44.443Z,1.27
2022-12-29T13:48:17.688Z,1.20
2022-12-29T13:50:48.702Z,1.50
2022-12-29T13:53:20.361Z,1.23
2022-12-29T13:55:52.464Z,1.20
2022-12-29T13:58:27.084Z,1.93
2022-12-29T14:00:59.423Z,1.50
2022-12-29T14:03:46.474Z,1.40
2022-12-29T14:06:17.763Z,1.47
2022-12-29T14:08:49.126Z,1.23
2022-12-29T14:11:19.147Z,1.10
2022-12-29T14:13:49.933Z,1.40
2022-12-29T14:16:28.443Z,1.40
2022-12-29T14:18:58.311Z,1.50
2022-12-29T14:21:30.768Z,1.20
2022-12-29T14:24:23.738Z,1.57
2022-12-29T14:26:52.376Z,1.47
2022-12-29T14:29:39.596Z,1.30
2022-12-29T14:32:38.364Z,1.70
2022-12-29T14:35:24.684Z,1.70
2022-12-29T14:38:07.950Z,1.30
2022-12-29T14:40:36.435Z,1.50
2022-12-29T14:43:14.510Z,1.67
2022-12-29T14:45:44.700Z,1.57
2022-12-29T14:48:33.083Z,1.47
2022-12-29T14:51:04.227Z,1.60
2022-12-29T14:53:46.277Z,2.10
2022-12-29T14:56:15.380Z,1.00
2022-12-29T14:58:47.553Z,0.97
2022-12-29T15:01:22.623Z,1.00
2022-12-29T15:03:53.613Z,0.80
2022-12-29T15:06:23.388Z,1.00
2022-12-29T15:08:53.619Z,1.27
2022-12-29T15:11:23.360Z,0.87
2022-12-29T15:13:52.103Z,0.87
2022-12-29T15:16:24.688Z,0.80
2022-12-29T15:18:54.897Z,1.00
2022-12-29T15:21:26.785Z,1.50
2022-12-29T15:23:55.441Z,1.10
2022-12-29T15:26:24.778Z,1.30
2022-12-29T15:28:55.613Z,1.27
2022-12-29T15:31:30.136Z,1.17
2022-12-29T15:34:11.898Z,1.67
2022-12-29T15:36:41.214Z,1.10
2022-12-29T15:39:20.662Z,1.60
2022-12-29T15:42:02.889Z,1.50
2022-12-29T15:44:32.748Z,1.90
2022-12-29T15:47:04.651Z,1.30
2022-12-29T15:49:34.746Z,1.60
2022-12-29T15:52:03.440Z,1.53
2022-12-29T15:54:33.244Z,1.43
2022-12-29T15:57:01.754Z,1.80
2022-12-29T15:59:30.984Z,1.80
2022-12-29T16:02:00.508Z,1.43
2022-12-29T16:04:31.149Z,1.77
2022-12-29T16:07:01.696Z,1.83
2022-12-29T16:09:33.644Z,1.83
2022-12-29T16:12:03.604Z,1.53
2022-12-29T16:14:34.868Z,1.50
2022-12-29T16:17:04.967Z,1.53
2022-12-29T16:19:36.460Z,2.60
2022-12-29T16:22:12.067Z,1.63
2022-12-29T16:24:41.754Z,1.37
2022-12-29T16:27:12.183Z,1.70
2022-12-29T16:29:40.886Z,1.87
2022-12-29T16:32:25.719Z,1.90
2022-12-29T16:34:55.451Z,2.20
2022-12-29T16:37:31.169Z,2.50
2022-12-29T16:40:20.619Z,2.70
2022-12-29T16:42:52.198Z,2.37
2022-12-29T16:45:51.197Z,2.27
2022-12-29T16:48:21.265Z,2.37
2022-12-29T16:50:50.150Z,2.47
2022-12-29T16:53:23.314Z,2.20
2022-12-29T16:55:52.618Z,2.07
2022-12-29T16:58:22.648Z,2.13
2022-12-29T17:00:51.515Z,3.07
2022-12-29T17:03:20.256Z,2.40
2022-12-29T17:05:55.527Z,2.77
2022-12-29T17:08:27.803Z,2.53
2022-12-29T17:11:14.617Z,2.50
2022-12-29T17:13:43.264Z,2.30
2022-12-29T17:16:13.055Z,2.50
2022-12-29T17:18:41.755Z,2.43
2022-12-29T17:21:10.339Z,2.23
2022-12-29T17:23:40.204Z,2.50
2022-12-29T17:26:09.559Z,2.20
2022-12-29T17:28:38.140Z,2.40
2022-12-29T17:31:08.174Z,2.20
2022-12-29T17:33:38.383Z,2.00
2022-12-29T17:36:07.071Z,2.13
2022-12-29T17:38:37.692Z,2.37
2022-12-29T17:41:11.007Z,2.47
2022-12-29T17:43:39.669Z,2.10
2022-12-29T17:46:09.137Z,2.20
2022-12-29T17:48:37.958Z,2.57
2022-12-29T17:51:06.623Z,2.10
2022-12-29T17:53:35.179Z,2.40
2022-12-29T17:56:03.655Z,1.90
2022-12-29T17:58:34.951Z,2.30
2022-12-29T18:01:04.189Z,2.07
2022-12-29T18:03:33.877Z,2.30
2022-12-29T18:06:03.112Z,1.97
2022-12-29T18:08:32.714Z,2.30
2022-12-29T18:11:01.649Z,2.20
2022-12-29T18:13:40.481Z,2.37
2022-12-29T18:16:14.618Z,2.33
2022-12-29T18:18:43.589Z,1.83
2022-12-29T18:21:17.603Z,2.10
2022-12-29T18:23:46.247Z,1.80
2022-12-29T18:26:19.612Z,2.03
2022-12-29T18:28:51.144Z,1.93
2022-12-29T18:31:22.746Z,1.70
2022-12-29T18:33:51.964Z,2.60
2022-12-29T18:36:21.073Z,2.70
2022-12-29T18:38:50.256Z,2.50
2022-12-29T18:41:19.442Z,2.10
2022-12-29T18:43:48.372Z,2.00
2022-12-29T18:46:22.428Z,1.83
2022-12-29T18:48:53.753Z,2.33
2022-12-29T18:51:23.086Z,1.70
2022-12-29T18:53:53.885Z,2.43
2022-12-29T18:56:23.229Z,2.80
2022-12-29T18:58:54.134Z,1.80
2022-12-29T19:01:24.374Z,1.97
2022-12-29T19:03:54.568Z,2.40
2022-12-29T19:06:23.302Z,2.07
2022-12-29T19:08:53.223Z,1.70
2022-12-29T19:11:21.816Z,1.83
2022-12-29T19:13:50.288Z,1.80
2022-12-29T19:16:21.053Z,2.17
2022-12-29T19:19:07.753Z,1.90
2022-12-29T19:21:39.459Z,2.00
2022-12-29T19:24:08.255Z,1.87
2022-12-29T19:26:37.722Z,1.33
2022-12-29T19:29:06.628Z,2.83
2022-12-29T19:31:35.291Z,1.40
2022-12-29T19:34:04.056Z,1.67
2022-12-29T19:36:32.782Z,1.60
2022-12-29T19:39:02.662Z,1.67
2022-12-29T19:41:31.672Z,1.20
2022-12-29T19:44:00.211Z,1.53
2022-12-29T19:46:28.732Z,1.63
2022-12-29T19:48:58.933Z,1.90
2022-12-29T19:51:27.986Z,1.70
2022-12-29T19:53:58.497Z,1.57
2022-12-29T19:56:28.499Z,1.43
2022-12-29T19:58:57.751Z,1.80
2022-12-29T20:01:26.603Z,1.50
2022-12-29T20:03:55.230Z,2.60
2022-12-29T20:06:23.710Z,1.50
2022-12-29T20:08:52.270Z,1.70
2022-12-29T20:11:21.398Z,1.50
2022-12-29T20:13:51.322Z,1.57
2022-12-29T20:16:21.644Z,1.93
2022-12-29T20:18:50.810Z,1.40
2022-12-29T20:21:20.606Z,1.70
2022-12-29T20:23:49.352Z,1.50
2022-12-29T20:26:19.171Z,1.70
2022-12-29T20:28:48.267Z,1.20
2022-12-29T20:31:19.265Z,1.33
2022-12-29T20:33:48.076Z,1.60
2022-12-29T20:36:17.446Z,1.90
2022-12-29T20:38:46.964Z,1.40
2022-12-29T20:41:15.995Z,2.10
2022-12-29T20:43:44.649Z,1.50
2022-12-29T20:46:18.105Z,2.20
2022-12-29T20:48:50.729Z,1.60
2022-12-29T20:51:19.245Z,1.60
2022-12-29T20:53:47.798Z,1.97
2022-12-29T20:56:17.364Z,1.93
2022-12-29T20:59:17.626Z,1.60
2022-12-29T21:01:35.207Z,1.97
2022-12-29T21:04:05.974Z,2.13
2022-12-29T21:06:34.844Z,2.00
2022-12-29T21:09:03.696Z,1.60
2022-12-29T21:11:32.391Z,2.03
2022-12-29T21:14:01.594Z,2.13
2022-12-29T21:16:30.520Z,1.53
2022-12-29T21:18:59.099Z,2.33
2022-12-29T21:21:29.001Z,1.90
2022-12-29T21:24:05.304Z,2.00
2022-12-29T21:26:35.035Z,2.03
2022-12-29T21:29:04.416Z,1.73
2022-12-29T21:31:34.225Z,2.20
2022-12-29T21:34:03.260Z,2.07
2022-12-29T21:36:34.197Z,2.67
2022-12-29T21:39:04.198Z,2.23
2022-12-29T21:41:32.835Z,1.90
2022-12-29T21:44:18.951Z,1.73
2022-12-29T21:46:48.881Z,2.13
2022-12-29T21:49:17.527Z,1.70
2022-12-29T21:51:54.275Z,2.00
2022-12-29T21:54:41.969Z,1.87
2022-12-29T21:57:10.645Z,1.70
2022-12-29T21:59:56.744Z,1.90
2022-12-29T22:02:44.018Z,1.90
2022-12-29T22:05:30.848Z,2.33
2022-12-29T22:08:18.632Z,1.67
2022-12-29T22:11:05.915Z,2.00
2022-12-29T22:13:34.604Z,1.80
2022-12-29T22:16:04.932Z,2.57
2022-12-29T22:18:33.468Z,1.93
2022-12-29T22:21:04.816Z,1.70
2022-12-29T22:23:34.856Z,1.90
2022-12-29T22:26:06.470Z,1.80
2022-12-29T22:28:37.958Z,1.60
2022-12-29T22:31:06.623Z,1.97
2022-12-29T22:33:35.579Z,2.00
2022-12-29T22:36:04.407Z,2.13
2022-12-29T22:38:34.441Z,1.97
2022-12-29T22:41:02.925Z,1.63
2022-12-29T22:43:31.531Z,1.53
2022-12-29T22:46:04.235Z,1.53
2022-12-29T22:48:33.395Z,1.77
2022-12-29T22:51:01.876Z,1.43
2022-12-29T22:53:30.604Z,1.70
2022-12-29T22:56:10.479Z,1.80
2022-12-29T22:58:41.592Z,1.70
2022-12-29T23:01:12.039Z,1.70
2022-12-29T23:03:40.985Z,1.53
2022-12-29T23:06:10.281Z,1.80
2022-12-29T23:08:40.251Z,2.00
2022-12-29T23:11:11.434Z,1.93
2022-12-29T23:13:41.108Z,1.40
2022-12-29T23:16:09.804Z,1.53
2022-12-29T23:18:38.324Z,1.33
2022-12-29T23:21:08.671Z,1.73
2022-12-29T23:23:56.250Z,1.73
2022-12-29T23:26:27.404Z,1.77
2022-12-29T23:29:00.286Z,1.53
2022-12-29T23:31:29.709Z,1.60
2022-12-29T23:33:58.379Z,1.67
2022-12-29T23:36:26.940Z,1.23
2022-12-29T23:38:55.731Z,1.23
2022-12-29T23:41:26.322Z,1.40
2022-12-29T23:43:56.198Z,1.23
2022-12-29T23:46:25.569Z,1.47
2022-12-29T23:48:54.588Z,1.60
2022-12-29T23:51:23.548Z,1.30
2022-12-29T23:53:52.082Z,1.60
2022-12-29T23:56:21.400Z,1.53
2022-12-29T23:58:51.037Z,2.03
